Hustisford, Wisconsin
Current Conditions -  °F | °C
As of 10:35 AM on Wednesday 26 Nov 2014 (Local Time) from KUNU Reporting Station
Haze Haze  
Wind Chill:   Ceiling: 700
Heat Index: 17°   Visibility: 4mi
Dew Point: 15°   Wind: 6mph
Humidity: 92%   Direction: 120°ESE
Pressure: 30.15"   Gusts: NA
Location:  43.35°N, 88.6°W
Report Text: KUNU 261635Z AUTO 12005KT 4SM BR OVC007 M08/M09 A3015 RMK AO2 T10811092
Loading
Personal Weather Stations






























Interactive Weather Map New forecast layout! Learn more

10-Day Weather Forecast

Advertisements
Track Severe Weather on mobile